Kezdőlap
METAR-TAF:

METAR-TAF

Repülőterek :

Neuquén, Argentína

földrajzi szélesség: 38-57S, földrajzi hosszúság: 068-08W, magasság: 270 m

Jelenlegi meteorológiai megfigyelések

A jelentés 22 perccel ezelõtt készült, 11:00 UTC
Nyugat-északnyugati szél 6 kt
Hőmérséklet 13°C
Páratartalom 58%
Légköri nyomás 1010 hPa
Látótávolság 10 km, vagy több
felhőtlen 1500 m magasságban, és nincs gomolyfelhõ

METAR: SAZN 251100Z 29006KT CAVOK 13/05 Q1010

Idő: 08:22 (11:22 UTC)

Előrejelzés

A jelentés 6 órával és 22 perccel ezelõtt készült, 05:00 UTC
Az előrejelzés 25-én 06 óra UTC és 26-én 06 óra UTC között érvényes
Nyugati szél 10 kt széllökések: 20 kt
Látótávolság 10 km, vagy több
felhőtlen 1500 m magasságban, és nincs gomolyfelhõ
25-én 12 óra UTC és 25-én 21 óra UTC között ideiglenes
Nyugati szél 15 kt széllökések: 25 kt

TAF: SAZN 250500Z 2506/2606 27010G20KT CAVOK TX23/2519Z TN08/2511Z TEMPO 2512/2521 27015G25KT

Meteorológiai megfigyelések és előrejelzések több, mint 4000 repülőtéren (METAR és TAF jelentéseket).

A térképen piros és sárga pontok jelzik az elérhető meteorológiai állomásokat.

Mozgassa az egeret a pont fölött, hogy megjelenjen az állomás neve.

Azután kattintson az időjárási megfigyelések és előrejelzések megtekintéséhez.

A térkép megváltoztatása: kattintson a fekete keresztel jelölt zöld gombra ráközelítéshez, a vonallal jelölt zöld gombra távolításhoz, vagy a zöld nyilakra a szomszédos térképek eléréséhez.


METAR-TAF: